Time;durP1;ratioP1;P1;durP2;ratioP2;P2;SDS_P1;SDS_P2;PMS_P1;PMS_P2;Temp;Humidity;BMP_temperature;BMP_pressure;BME280_temperature;BME280_humidity;BME280_pressure;Samples;Min_cycle;Max_cycle;Signal;HPM_P1;HPM_P2
2021/03/15 00:02:14;;;;;;;7.43;5.00;;;4.20;99.90;;;;;;4926931;29;20221;-80
2021/03/15 00:04:40;;;;;;;5.83;5.03;;;4.20;99.90;;;;;;4932217;29;20208;-78
2021/03/15 00:07:06;;;;;;;9.57;5.97;;;4.20;99.90;;;;;;4937276;29;20431;-78
2021/03/15 00:09:32;;;;;;;5.40;4.67;;;4.10;99.90;;;;;;4936616;29;20220;-78
2021/03/15 00:11:58;;;;;;;6.63;5.37;;;4.10;99.90;;;;;;4937180;29;20168;-78
2021/03/15 00:14:24;;;;;;;6.37;4.97;;;4.20;99.90;;;;;;4937448;29;20383;-78
2021/03/15 00:16:50;;;;;;;10.40;6.23;;;4.30;99.90;;;;;;4928156;29;20180;-81
2021/03/15 00:19:16;;;;;;;6.70;5.00;;;4.20;99.90;;;;;;4929169;29;20208;-78
2021/03/15 00:21:42;;;;;;;5.90;5.30;;;4.00;99.90;;;;;;4936628;29;20498;-80
2021/03/15 00:24:08;;;;;;;6.13;5.33;;;4.30;99.90;;;;;;4928789;29;20416;-80
2021/03/15 00:26:34;;;;;;;6.37;4.93;;;4.00;99.90;;;;;;4926843;29;20161;-80
2021/03/15 00:29:00;;;;;;;7.63;5.63;;;4.10;99.90;;;;;;4926480;29;20388;-81
2021/03/15 00:31:26;;;;;;;7.50;5.60;;;3.90;99.90;;;;;;4925026;29;20499;-80
2021/03/15 00:33:52;;;;;;;7.60;5.70;;;3.90;99.90;;;;;;4925298;29;20409;-80
2021/03/15 00:36:20;;;;;;;5.90;5.30;;;3.90;99.90;;;;;;4926735;29;20383;-81
2021/03/15 00:38:46;;;;;;;6.00;3.90;;;4.00;99.90;;;;;;4926193;29;20480;-81
2021/03/15 00:41:12;;;;;;;7.80;5.20;;;4.00;99.90;;;;;;4925720;29;20404;-80
2021/03/15 00:43:38;;;;;;;9.27;5.43;;;4.00;99.90;;;;;;4925679;29;20461;-81
2021/03/15 00:46:04;;;;;;;6.70;4.77;;;4.00;99.90;;;;;;4926585;29;20193;-80
2021/03/15 00:48:29;;;;;;;6.30;5.53;;;4.10;99.90;;;;;;4926298;29;20176;-80
2021/03/15 00:50:55;;;;;;;8.73;5.83;;;3.80;99.90;;;;;;4927105;29;20194;-80
2021/03/15 00:53:21;;;;;;;6.10;5.50;;;3.80;99.90;;;;;;4925825;29;20169;-80
2021/03/15 00:55:47;;;;;;;7.80;5.20;;;3.90;99.90;;;;;;4927097;29;20527;-81
2021/03/15 00:58:13;;;;;;;9.73;6.37;;;3.80;99.90;;;;;;4925583;29;20169;-81
2021/03/15 01:00:40;;;;;;;5.77;4.93;;;3.80;99.90;;;;;;4926578;29;20165;-80
2021/03/15 01:03:06;;;;;;;7.60;6.73;;;3.70;99.90;;;;;;4926317;29;20395;-80
2021/03/15 01:05:37;;;;;;;5.70;5.10;;;3.50;99.90;;;;;;4925685;29;20388;-80
2021/03/15 01:08:08;;;;;;;6.33;5.70;;;3.40;99.90;;;;;;4926776;29;20807;-80
2021/03/15 01:10:36;;;;;;;6.13;4.37;;;3.30;99.90;;;;;;4926935;29;20412;-80
2021/03/15 01:13:04;;;;;;;6.23;4.50;;;3.50;99.90;;;;;;4910027;29;20387;-80
2021/03/15 01:15:30;;;;;;;9.57;6.63;;;3.40;99.90;;;;;;4909389;29;20523;-80
2021/03/15 01:17:56;;;;;;;6.83;5.90;;;3.50;99.90;;;;;;4925870;29;20405;-80
2021/03/15 01:20:23;;;;;;;5.90;5.10;;;3.40;99.90;;;;;;4940466;29;20514;-80
2021/03/15 01:22:48;;;;;;;6.00;3.80;;;3.50;99.90;;;;;;4925689;29;20379;-81
2021/03/15 01:25:16;;;;;;;7.17;5.30;;;3.50;99.90;;;;;;4908469;29;20430;-81
2021/03/15 01:27:43;;;;;;;9.73;5.50;;;3.60;99.90;;;;;;4924858;29;20376;-80
2021/03/15 01:30:14;;;;;;;6.73;5.60;;;3.50;99.90;;;;;;4909237;29;20409;-81
2021/03/15 01:32:39;;;;;;;3.77;3.43;;;3.60;99.90;;;;;;4924824;29;20383;-80
2021/03/15 01:35:07;;;;;;;5.77;5.27;;;3.80;99.90;;;;;;4926072;29;20455;-80
2021/03/15 01:37:33;;;;;;;5.40;4.87;;;3.80;99.90;;;;;;4924227;29;20428;-81
2021/03/15 01:39:59;;;;;;;6.80;5.93;;;3.80;99.90;;;;;;4925869;29;20449;-80
2021/03/15 01:42:25;;;;;;;5.37;4.97;;;3.90;99.90;;;;;;4924673;29;20382;-80
2021/03/15 01:44:50;;;;;;;5.73;4.33;;;4.10;99.90;;;;;;4924590;29;20169;-81
2021/03/15 01:47:17;;;;;;;10.43;5.93;;;4.30;99.90;;;;;;4925954;29;20173;-81
2021/03/15 01:49:43;;;;;;;5.97;5.30;;;4.40;99.90;;;;;;4924971;29;20232;-80
2021/03/15 01:52:10;;;;;;;6.60;4.67;;;4.50;99.90;;;;;;4908835;29;20395;-81
2021/03/15 01:54:36;;;;;;;4.00;3.70;;;4.40;99.90;;;;;;4924635;29;20169;-80
2021/03/15 01:57:02;;;;;;;9.23;4.80;;;4.40;99.90;;;;;;4925278;29;20471;-80
2021/03/15 01:59:28;;;;;;;6.13;4.90;;;4.30;99.90;;;;;;4939632;29;20884;-80
2021/03/15 02:01:55;;;;;;;7.60;3.97;;;4.00;99.90;;;;;;4925121;29;20441;-80
2021/03/15 02:04:23;;;;;;;5.70;4.47;;;3.90;99.90;;;;;;4940617;29;20380;-81
2021/03/15 02:06:49;;;;;;;6.40;3.80;;;3.90;99.90;;;;;;4923948;29;20376;-80
2021/03/15 02:09:15;;;;;;;5.60;4.77;;;3.90;99.90;;;;;;4924597;29;20841;-80
2021/03/15 02:11:59;;;;;;;7.23;4.93;;;4.20;99.90;;;;;;4925543;29;20490;-79
2021/03/15 02:14:50;;;;;;;4.80;3.63;;;4.30;99.90;;;;;;4923641;29;20201;-81
2021/03/15 02:17:25;;;;;;;7.83;4.87;;;4.30;99.90;;;;;;4923927;29;20392;-80
2021/03/15 02:20:22;;;;;;;6.73;4.90;;;4.00;99.90;;;;;;4934525;29;20458;-78
2021/03/15 02:23:07;;;;;;;7.10;4.33;;;4.00;99.90;;;;;;4922437;29;20430;-78
2021/03/15 02:26:00;;;;;;;6.20;4.83;;;4.10;99.90;;;;;;4935896;29;20383;-79
2021/03/15 02:29:00;;;;;;;5.77;4.50;;;4.00;99.90;;;;;;4933262;29;20481;-79
2021/03/15 02:31:52;;;;;;;6.93;4.00;;;3.80;99.90;;;;;;4929546;29;20431;-80
2021/03/15 02:34:41;;;;;;;5.87;4.73;;;3.70;99.90;;;;;;4923030;29;20431;-80
2021/03/15 02:37:10;;;;;;;4.60;3.73;;;3.70;99.90;;;;;;4924741;29;20387;-80
2021/03/15 02:39:40;;;;;;;8.30;5.47;;;3.80;99.90;;;;;;4925243;29;20892;-80
2021/03/15 02:42:13;;;;;;;7.50;4.20;;;3.90;99.90;;;;;;4924465;29;20463;-80
2021/03/15 02:44:39;;;;;;;4.80;4.33;;;3.80;99.90;;;;;;4906833;29;20413;-80
2021/03/15 02:47:11;;;;;;;8.33;4.33;;;3.80;99.90;;;;;;4923618;29;20382;-80
2021/03/15 02:49:40;;;;;;;6.30;4.97;;;4.00;99.90;;;;;;4923616;29;20417;-80
2021/03/15 02:52:07;;;;;;;3.60;3.23;;;4.00;99.90;;;;;;4918917;29;20421;-78
2021/03/15 02:54:35;;;;;;;4.20;3.80;;;3.90;99.90;;;;;;4935594;29;20841;-78
2021/03/15 02:57:03;;;;;;;6.03;3.83;;;4.20;99.90;;;;;;4918734;29;20395;-78
2021/03/15 02:59:30;;;;;;;6.70;4.40;;;4.30;99.90;;;;;;4934656;29;20423;-78
2021/03/15 03:01:57;;;;;;;7.83;3.10;;;4.20;99.90;;;;;;4933701;29;20434;-78
2021/03/15 03:04:25;;;;;;;3.70;3.17;;;4.20;99.90;;;;;;4935107;29;20376;-77
2021/03/15 03:06:52;;;;;;;4.23;3.93;;;4.20;99.90;;;;;;4932983;29;20401;-78
2021/03/15 03:09:19;;;;;;;8.43;4.17;;;4.30;99.90;;;;;;4917334;29;20765;-80
2021/03/15 03:11:49;;;;;;;4.93;3.43;;;4.20;99.90;;;;;;4912775;29;20416;-78
2021/03/15 03:14:19;;;;;;;5.43;3.37;;;4.10;99.90;;;;;;4934558;29;20402;-81
2021/03/15 03:16:45;;;;;;;6.60;4.27;;;4.40;99.90;;;;;;4906340;29;20433;-81
2021/03/15 03:19:15;;;;;;;5.40;3.70;;;4.70;99.90;;;;;;4922596;29;20438;-80
2021/03/15 03:21:42;;;;;;;3.50;3.20;;;4.80;99.90;;;;;;4924559;29;20376;-80
2021/03/15 03:24:09;;;;;;;4.07;3.67;;;4.70;99.90;;;;;;4925063;29;20405;-80
2021/03/15 03:26:37;;;;;;;6.00;4.63;;;4.80;99.90;;;;;;4927969;29;20378;-78
2021/03/15 03:29:06;;;;;;;5.43;4.93;;;4.60;99.90;;;;;;4935601;29;20397;-79
2021/03/15 03:31:34;;;;;;;6.37;4.70;;;4.40;99.90;;;;;;4933721;29;20384;-79
2021/03/15 03:34:01;;;;;;;9.27;4.20;;;4.30;99.90;;;;;;4931680;29;20420;-79
2021/03/15 03:36:28;;;;;;;4.63;4.20;;;4.50;99.90;;;;;;4913901;29;20419;-80
2021/03/15 03:38:55;;;;;;;3.70;3.40;;;4.70;99.90;;;;;;4924957;29;20423;-80
2021/03/15 03:41:21;;;;;;;7.30;4.60;;;4.80;99.90;;;;;;4924765;29;20391;-80
2021/03/15 03:43:47;;;;;;;5.20;4.70;;;4.70;99.90;;;;;;4925890;29;20683;-80
2021/03/15 03:46:14;;;;;;;4.10;3.80;;;4.80;99.90;;;;;;4932392;29;20405;-77
2021/03/15 03:48:41;;;;;;;6.07;5.50;;;4.80;99.90;;;;;;4933887;29;20412;-78
2021/03/15 03:51:09;;;;;;;5.50;5.00;;;4.90;99.90;;;;;;4918383;29;20444;-77
2021/03/15 03:53:57;;;;;;;5.33;4.40;;;5.00;99.90;;;;;;4932800;29;20465;-78
2021/03/15 03:56:29;;;;;;;4.20;3.80;;;5.10;99.90;;;;;;4917251;29;20379;-78
2021/03/15 03:58:58;;;;;;;5.93;4.50;;;5.10;99.90;;;;;;4931838;29;20427;-80
2021/03/15 04:01:31;;;;;;;8.00;5.30;;;5.10;99.90;;;;;;4931798;29;20383;-78
2021/03/15 04:04:00;;;;;;;5.60;4.67;;;4.80;99.90;;;;;;4916761;29;20376;-78
2021/03/15 04:06:29;;;;;;;4.80;4.40;;;4.80;99.90;;;;;;4931761;29;20379;-78
2021/03/15 04:09:01;;;;;;;5.50;4.97;;;4.70;99.90;;;;;;4948661;29;20454;-77
2021/03/15 04:11:31;;;;;;;5.10;4.60;;;4.20;99.90;;;;;;4932443;29;20405;-80
2021/03/15 04:13:58;;;;;;;6.70;4.37;;;4.40;99.90;;;;;;4922988;29;20484;-81
2021/03/15 04:16:28;;;;;;;4.80;4.40;;;4.30;99.90;;;;;;4924777;29;20401;-80
2021/03/15 04:18:56;;;;;;;8.57;5.30;;;4.50;99.90;;;;;;4925981;29;20461;-80
2021/03/15 04:21:26;;;;;;;5.90;4.97;;;4.60;99.90;;;;;;4924838;29;20580;-79
2021/03/15 04:23:56;;;;;;;15.03;5.43;;;4.70;99.90;;;;;;4891798;29;20376;-80
2021/03/15 04:26:24;;;;;;;5.33;4.20;;;4.70;99.90;;;;;;4938373;29;20862;-81
2021/03/15 04:28:52;;;;;;;5.83;5.23;;;4.50;99.90;;;;;;4922758;29;20810;-79
2021/03/15 04:31:19;;;;;;;4.53;4.13;;;4.40;99.90;;;;;;4907440;29;20418;-81
2021/03/15 04:33:46;;;;;;;5.70;4.73;;;4.40;99.90;;;;;;4923907;29;20470;-80
2021/03/15 04:36:14;;;;;;;8.33;4.80;;;4.40;99.90;;;;;;4922770;29;20849;-81
2021/03/15 04:38:41;;;;;;;6.20;5.60;;;4.40;99.90;;;;;;4925557;29;20925;-80
2021/03/15 04:41:08;;;;;;;9.00;5.43;;;4.40;99.90;;;;;;4925251;29;20464;-80
2021/03/15 04:43:35;;;;;;;5.37;4.70;;;4.30;99.90;;;;;;4926505;29;20399;-80
2021/03/15 04:46:01;;;;;;;8.20;6.70;;;4.40;99.90;;;;;;4926424;29;20429;-81
2021/03/15 04:48:29;;;;;;;10.57;7.10;;;4.50;99.90;;;;;;4910135;29;20387;-80
2021/03/15 04:51:01;;;;;;;7.20;5.93;;;4.60;99.90;;;;;;4941190;29;20409;-79
2021/03/15 04:53:31;;;;;;;5.60;5.10;;;4.70;99.90;;;;;;4909284;29;20482;-81
2021/03/15 04:56:00;;;;;;;8.03;7.23;;;4.70;99.90;;;;;;4925471;29;20391;-79
2021/03/15 04:58:28;;;;;;;6.30;5.67;;;4.60;99.90;;;;;;4909524;29;20921;-79
2021/03/15 05:00:57;;;;;;;8.00;5.37;;;4.80;99.90;;;;;;4925336;29;20440;-80
2021/03/15 05:03:24;;;;;;;7.30;5.50;;;4.60;99.90;;;;;;4909898;29;20418;-80
2021/03/15 05:05:53;;;;;;;7.33;4.70;;;4.60;99.90;;;;;;4926324;29;20409;-80
2021/03/15 05:08:23;;;;;;;8.20;5.03;;;4.70;99.90;;;;;;4926267;29;20451;-80
2021/03/15 05:10:50;;;;;;;7.17;5.87;;;4.90;99.90;;;;;;4926555;29;20393;-80
2021/03/15 05:13:17;;;;;;;9.40;5.37;;;5.00;99.90;;;;;;4925315;29;20473;-80
2021/03/15 05:15:44;;;;;;;5.80;5.20;;;4.90;99.90;;;;;;4927442;29;20847;-80
2021/03/15 05:18:13;;;;;;;7.93;6.27;;;5.10;99.90;;;;;;4926074;29;20391;-81
2021/03/15 05:20:39;;;;;;;7.03;6.33;;;5.00;99.90;;;;;;4909923;29;20436;-80
2021/03/15 05:23:10;;;;;;;7.30;6.10;;;5.20;99.90;;;;;;4925728;29;20805;-80
2021/03/15 05:25:39;;;;;;;6.27;5.67;;;5.00;99.90;;;;;;4924971;29;20424;-81
2021/03/15 05:28:07;;;;;;;6.90;6.17;;;4.90;99.90;;;;;;4941067;29;20372;-80
2021/03/15 05:30:34;;;;;;;7.30;6.63;;;5.00;99.90;;;;;;4925026;29;20409;-81
2021/03/15 05:33:03;;;;;;;7.90;7.20;;;5.00;99.90;;;;;;4925213;29;20448;-81
2021/03/15 05:35:30;;;;;;;7.47;5.40;;;4.90;99.90;;;;;;4924782;29;20436;-80
2021/03/15 05:37:58;;;;;;;8.63;5.97;;;4.90;99.90;;;;;;4925199;29;20898;-80
2021/03/15 05:40:25;;;;;;;9.13;7.27;;;4.70;99.90;;;;;;4912480;29;20545;-80
2021/03/15 05:43:21;;;;;;;6.53;5.93;;;4.60;99.90;;;;;;4926028;29;20428;-80
2021/03/15 05:46:17;;;;;;;5.77;5.13;;;4.60;99.90;;;;;;4927617;29;20912;-79
2021/03/15 05:49:15;;;;;;;12.30;5.80;;;4.70;99.90;;;;;;4919323;29;20537;-80
2021/03/15 05:52:13;;;;;;;7.53;6.47;;;4.50;99.90;;;;;;4923738;29;20403;-80
2021/03/15 05:55:09;;;;;;;10.13;5.23;;;4.80;99.90;;;;;;4929320;29;20439;-80
2021/03/15 05:57:54;;;;;;;6.07;5.57;;;4.70;99.90;;;;;;4922861;29;20794;-80
2021/03/15 06:00:44;;;;;;;8.70;6.03;;;4.60;99.90;;;;;;4922826;29;20431;-81
2021/03/15 06:03:21;;;;;;;6.00;5.43;;;4.50;99.90;;;;;;4925096;29;20445;-81
2021/03/15 06:05:51;;;;;;;8.40;6.93;;;4.50;99.90;;;;;;4924754;29;20406;-80
2021/03/15 06:08:20;;;;;;;6.50;5.90;;;4.50;99.90;;;;;;4924980;29;20468;-81
2021/03/15 06:11:03;;;;;;;11.33;7.80;;;4.60;99.90;;;;;;4924634;29;20436;-80
2021/03/15 06:13:32;;;;;;;8.50;6.03;;;4.80;99.90;;;;;;4924041;29;20395;-80
2021/03/15 06:15:59;;;;;;;6.90;6.20;;;4.90;99.90;;;;;;4924749;29;20396;-81
2021/03/15 06:18:25;;;;;;;7.27;6.33;;;4.90;99.90;;;;;;4924788;29;20455;-80
2021/03/15 06:20:52;;;;;;;10.77;6.50;;;5.00;99.90;;;;;;4924306;29;20427;-80
2021/03/15 06:23:18;;;;;;;10.03;6.30;;;4.80;99.90;;;;;;4924835;29;20421;-80
2021/03/15 06:25:47;;;;;;;8.67;6.67;;;4.70;99.90;;;;;;4909040;29;20481;-80
2021/03/15 06:28:13;;;;;;;8.43;5.77;;;5.10;99.90;;;;;;4923990;29;20466;-80
2021/03/15 06:30:40;;;;;;;12.30;6.97;;;5.10;99.90;;;;;;4923806;29;20387;-81
2021/03/15 06:33:06;;;;;;;8.13;5.23;;;5.20;99.90;;;;;;4923943;29;20395;-80
2021/03/15 06:35:45;;;;;;;9.53;5.63;;;5.10;99.90;;;;;;4923010;29;20790;-80
2021/03/15 06:38:11;;;;;;;7.33;5.43;;;4.90;99.90;;;;;;4920646;29;20177;-79
2021/03/15 06:40:40;;;;;;;6.87;5.50;;;5.20;99.90;;;;;;4908303;29;20406;-80
2021/03/15 06:43:06;;;;;;;5.47;5.00;;;5.10;99.90;;;;;;4911733;29;20177;-80
2021/03/15 06:45:32;;;;;;;5.83;4.50;;;4.90;99.90;;;;;;4926128;29;20450;-79
2021/03/15 06:48:02;;;;;;;5.50;4.33;;;5.00;99.90;;;;;;4909792;29;20410;-81
2021/03/15 06:50:27;;;;;;;5.00;4.50;;;4.90;99.90;;;;;;4921593;29;20455;-80
2021/03/15 06:52:59;;;;;;;5.87;4.87;;;4.90;99.90;;;;;;4906121;29;20475;-80
2021/03/15 06:55:46;;;;;;;5.77;4.63;;;4.90;99.90;;;;;;4897922;29;20185;-77
2021/03/15 06:58:22;;;;;;;9.40;4.73;;;5.00;99.90;;;;;;4915033;29;20463;-80
2021/03/15 07:01:09;;;;;;;11.00;4.10;;;5.20;99.90;;;;;;4917689;29;20422;-80
2021/03/15 07:03:36;;;;;;;12.03;4.30;;;5.20;99.90;;;;;;4924891;29;20426;-80
2021/03/15 07:06:05;;;;;;;6.47;4.37;;;4.90;99.90;;;;;;4914963;29;20448;-79
2021/03/15 07:08:30;;;;;;;8.00;4.33;;;5.20;99.90;;;;;;4906134;29;20452;-80
2021/03/15 07:10:57;;;;;;;6.60;4.37;;;5.00;99.90;;;;;;4922289;29;20411;-81
2021/03/15 07:13:26;;;;;;;14.00;4.30;;;5.10;99.90;;;;;;4906291;29;20669;-80
2021/03/15 07:16:23;;;;;;;7.93;4.00;;;5.10;99.90;;;;;;4907915;29;20467;-80
2021/03/15 07:18:49;;;;;;;5.23;4.73;;;5.10;99.90;;;;;;4901659;29;20471;-80
2021/03/15 07:21:15;;;;;;;6.00;4.83;;;5.20;99.90;;;;;;4902404;29;20433;-80
2021/03/15 07:23:46;;;;;;;4.57;3.20;;;5.30;99.90;;;;;;4911642;29;20408;-80
2021/03/15 07:26:23;;;;;;;10.07;3.57;;;5.30;99.90;;;;;;4919918;29;20753;-80
2021/03/15 07:28:50;;;;;;;4.60;3.07;;;5.10;99.90;;;;;;4924283;29;20434;-81
2021/03/15 07:31:26;;;;;;;4.53;3.30;;;5.20;99.90;;;;;;4921349;29;20441;-80
2021/03/15 07:34:10;;;;;;;7.23;3.30;;;5.10;99.90;;;;;;4909245;29;20531;-81
2021/03/15 07:36:50;;;;;;;3.40;3.13;;;5.20;99.90;;;;;;4893319;29;20419;-80
2021/03/15 07:39:16;;;;;;;6.00;4.27;;;5.20;99.90;;;;;;4901555;29;20469;-82
2021/03/15 07:41:46;;;;;;;6.03;4.20;;;5.30;99.90;;;;;;4940680;29;20419;-79
2021/03/15 07:44:27;;;;;;;3.87;3.07;;;5.40;99.90;;;;;;4917646;29;20425;-80
2021/03/15 07:46:56;;;;;;;4.50;2.90;;;5.20;99.90;;;;;;4904137;29;20469;-80
2021/03/15 07:49:27;;;;;;;3.93;2.40;;;5.30;99.90;;;;;;4890612;29;20429;-80
2021/03/15 07:52:00;;;;;;;2.77;1.90;;;5.20;99.90;;;;;;4898398;29;20576;-80
2021/03/15 07:54:43;;;;;;;3.40;2.07;;;5.10;99.90;;;;;;4897843;29;20417;-80
2021/03/15 07:57:19;;;;;;;1.87;1.70;;;4.90;99.90;;;;;;4893368;29;20430;-82
2021/03/15 07:59:52;;;;;;;3.63;1.90;;;5.00;99.90;;;;;;4914396;29;20469;-82
2021/03/15 08:02:23;;;;;;;5.40;3.00;;;5.00;99.90;;;;;;4895205;29;20444;-82
2021/03/15 08:04:54;;;;;;;3.23;2.60;;;4.90;99.90;;;;;;4886703;29;20453;-82
2021/03/15 08:07:24;;;;;;;2.67;2.47;;;5.10;99.90;;;;;;4860031;29;20449;-82
2021/03/15 08:09:52;;;;;;;3.00;2.70;;;5.10;99.90;;;;;;4898149;29;20523;-81
2021/03/15 08:12:23;;;;;;;3.57;2.03;;;5.20;99.90;;;;;;4893995;29;20799;-80
2021/03/15 08:14:53;;;;;;;2.67;2.43;;;4.90;99.90;;;;;;4907600;29;20419;-80
2021/03/15 08:17:21;;;;;;;5.10;4.30;;;5.00;99.90;;;;;;4932015;29;20471;-82
2021/03/15 08:19:48;;;;;;;3.00;1.93;;;5.20;99.90;;;;;;4943116;29;20472;-82
2021/03/15 08:22:26;;;;;;;4.47;2.33;;;5.00;99.90;;;;;;4917858;29;20828;-81
2021/03/15 08:24:57;;;;;;;2.67;2.10;;;5.10;99.90;;;;;;4914238;29;20874;-81
2021/03/15 08:27:27;;;;;;;9.80;2.80;;;4.80;99.90;;;;;;4918854;29;20451;-82
2021/03/15 08:30:01;;;;;;;4.40;2.70;;;5.00;99.90;;;;;;4909758;29;20444;-81
2021/03/15 08:32:34;;;;;;;4.33;2.90;;;5.30;99.90;;;;;;4912747;29;20467;-82
2021/03/15 08:35:01;;;;;;;2.97;2.77;;;5.20;99.90;;;;;;4889458;29;20417;-82
2021/03/15 08:37:49;;;;;;;3.30;2.70;;;5.00;99.90;;;;;;4868386;29;20528;-83
2021/03/15 08:40:16;;;;;;;7.60;2.53;;;5.30;99.90;;;;;;4857577;29;20587;-82
2021/03/15 08:42:42;;;;;;;6.40;3.00;;;5.40;99.90;;;;;;4888652;29;20499;-83
2021/03/15 08:45:26;;;;;;;5.20;2.80;;;5.40;99.90;;;;;;4887712;29;20441;-83
2021/03/15 08:47:53;;;;;;;3.90;3.00;;;5.20;99.90;;;;;;4894673;29;20227;-82
2021/03/15 08:50:54;;;;;;;3.70;3.10;;;5.40;99.90;;;;;;4870296;29;20521;-84
2021/03/15 08:53:48;;;;;;;3.70;3.37;;;5.60;99.90;;;;;;4836530;29;20568;-82
2021/03/15 08:56:36;;;;;;;3.50;2.67;;;5.60;99.90;;;;;;4835402;29;20795;-80
2021/03/15 08:59:04;;;;;;;3.13;2.50;;;5.50;99.90;;;;;;4816731;29;20593;-81
2021/03/15 09:01:51;;;;;;;4.70;3.00;;;5.30;99.90;;;;;;4831507;29;20440;-83
2021/03/15 09:04:39;;;;;;;4.50;2.97;;;5.30;99.90;;;;;;4847136;29;20459;-82
2021/03/15 09:07:28;;;;;;;2.73;2.27;;;5.60;99.90;;;;;;4838285;29;20440;-82
2021/03/15 09:09:54;;;;;;;6.10;2.70;;;5.70;99.90;;;;;;4823894;29;20527;-81
2021/03/15 09:12:20;;;;;;;3.40;2.30;;;5.70;99.90;;;;;;4844516;29;20447;-83
2021/03/15 09:14:58;;;;;;;2.70;1.80;;;5.20;99.90;;;;;;4825506;29;20428;-81
2021/03/15 09:17:32;;;;;;;3.00;2.70;;;5.30;99.90;;;;;;4825769;29;20184;-82
2021/03/15 09:20:14;;;;;;;3.93;2.67;;;5.40;99.90;;;;;;4860289;29;20454;-81
2021/03/15 09:22:40;;;;;;;5.57;2.20;;;5.30;99.90;;;;;;4857393;29;20414;-80
2021/03/15 09:25:17;;;;;;;2.47;2.30;;;4.90;99.90;;;;;;4920705;29;20414;-81
2021/03/15 09:27:48;;;;;;;3.83;2.67;;;4.90;99.90;;;;;;4927145;29;20180;-80
2021/03/15 09:30:35;;;;;;;2.43;2.23;;;4.60;99.90;;;;;;4911466;29;20462;-81
2021/03/15 09:33:01;;;;;;;1.90;1.80;;;4.90;99.90;;;;;;4920515;29;20929;-81
2021/03/15 09:35:31;;;;;;;4.93;2.10;;;4.90;99.90;;;;;;4926269;29;20407;-81
2021/03/15 09:40:40;;;;;;;4.57;1.80;;;5.00;99.90;;;;;;4927554;29;20458;-81
2021/03/15 09:43:26;;;;;;;3.10;2.80;;;5.10;99.90;;;;;;4928000;29;20412;-81
2021/03/15 09:46:14;;;;;;;2.07;1.97;;;5.10;99.90;;;;;;4927525;29;20877;-81
2021/03/15 09:48:58;;;;;;;3.13;1.73;;;5.30;99.90;;;;;;4929109;29;20448;-80
2021/03/15 09:51:43;;;;;;;2.33;1.83;;;5.60;99.90;;;;;;4925583;29;20391;-81
2021/03/15 09:54:43;;;;;;;2.33;2.13;;;5.70;99.90;;;;;;4926974;29;20464;-82
2021/03/15 09:57:28;;;;;;;2.17;2.00;;;5.90;99.90;;;;;;4920521;29;20895;-82
2021/03/15 10:00:18;;;;;;;2.33;2.23;;;5.80;99.90;;;;;;4928667;29;20470;-79
2021/03/15 10:03:03;;;;;;;2.03;1.87;;;5.90;99.90;;;;;;4926060;29;20957;-81
2021/03/15 10:05:58;;;;;;;2.83;2.10;;;5.80;99.90;;;;;;4923286;29;20408;-79
2021/03/15 10:08:54;;;;;;;2.57;2.37;;;6.00;99.90;;;;;;4917884;29;20865;-80
2021/03/15 10:11:43;;;;;;;2.00;1.88;;;6.00;99.90;;;;;;4920601;29;20404;-81
2021/03/15 10:14:27;;;;;;;2.07;1.97;;;6.00;99.90;;;;;;4924887;29;20184;-81
2021/03/15 10:17:20;;;;;;;2.30;2.10;;;5.90;99.90;;;;;;4916136;29;20437;-80
2021/03/15 10:20:08;;;;;;;2.57;2.33;;;5.80;99.90;;;;;;4908681;29;20257;-79
2021/03/15 10:22:53;;;;;;;1.70;1.60;;;5.90;99.90;;;;;;4897438;29;20475;-80
2021/03/15 10:25:39;;;;;;;2.07;1.87;;;6.00;99.90;;;;;;4926749;29;20451;-80
2021/03/15 10:28:25;;;;;;;1.90;1.80;;;6.10;99.90;;;;;;4906465;29;20985;-80
2021/03/15 10:31:11;;;;;;;2.30;2.10;;;6.00;99.90;;;;;;4919531;29;20436;-81
2021/03/15 10:33:58;;;;;;;2.40;1.83;;;5.90;99.90;;;;;;4929552;29;20411;-80
2021/03/15 10:36:43;;;;;;;2.67;2.40;;;6.30;99.90;;;;;;4917046;29;20542;-80
2021/03/15 10:39:28;;;;;;;1.97;1.70;;;6.40;99.90;;;;;;4919262;29;20499;-80
2021/03/15 10:42:13;;;;;;;2.33;1.90;;;6.60;99.90;;;;;;4915586;29;20409;-80
2021/03/15 10:45:00;;;;;;;2.20;2.00;;;6.60;99.90;;;;;;4917319;29;20494;-80
2021/03/15 10:47:48;;;;;;;1.53;1.43;;;6.60;99.90;;;;;;4907020;29;20267;-81
2021/03/15 10:50:36;;;;;;;1.57;1.47;;;6.50;99.90;;;;;;4899079;29;20428;-79
2021/03/15 10:53:23;;;;;;;1.83;1.60;;;6.50;99.90;;;;;;4897365;29;20432;-81
2021/03/15 10:56:16;;;;;;;1.93;1.80;;;6.60;99.90;;;;;;4901303;29;20959;-80
2021/03/15 10:59:00;;;;;;;2.33;2.13;;;6.60;99.90;;;;;;4880120;29;20444;-80
2021/03/15 11:01:52;;;;;;;2.57;2.37;;;6.60;99.90;;;;;;4893464;29;20458;-81
2021/03/15 11:04:40;;;;;;;1.70;1.60;;;6.60;99.90;;;;;;4864511;29;20475;-81
2021/03/15 11:07:28;;;;;;;3.07;2.77;;;6.60;99.90;;;;;;4897562;29;20517;-81
2021/03/15 11:09:58;;;;;;;1.77;1.60;;;6.60;99.90;;;;;;4897883;29;20887;-81
2021/03/15 11:12:49;;;;;;;4.73;2.13;;;6.70;99.90;;;;;;4901993;29;20426;-81
2021/03/15 11:15:18;;;;;;;2.40;2.20;;;6.80;99.90;;;;;;4886703;29;20404;-81
2021/03/15 11:18:09;;;;;;;3.80;2.63;;;6.80;99.90;;;;;;4899600;29;20409;-81
2021/03/15 11:20:52;;;;;;;2.63;2.10;;;6.80;99.90;;;;;;4882886;29;20977;-80
2021/03/15 11:23:37;;;;;;;2.37;2.20;;;6.80;99.90;;;;;;4932052;29;20427;-80
2021/03/15 11:26:12;;;;;;;3.10;2.27;;;6.90;99.90;;;;;;4912849;29;20851;-80
2021/03/15 11:28:41;;;;;;;3.30;2.20;;;6.90;99.90;;;;;;4924403;29;20427;-80
2021/03/15 11:31:15;;;;;;;3.07;2.50;;;6.90;99.90;;;;;;4914327;29;20436;-80
2021/03/15 11:33:41;;;;;;;2.13;1.80;;;6.90;99.90;;;;;;4915360;29;20443;-80
2021/03/15 11:36:16;;;;;;;1.97;1.87;;;7.10;99.90;;;;;;4924691;29;20399;-81
2021/03/15 11:38:50;;;;;;;2.87;2.50;;;7.30;99.90;;;;;;4919724;29;20944;-80
2021/03/15 11:41:20;;;;;;;2.50;2.30;;;7.50;99.90;;;;;;4915993;29;20457;-80
2021/03/15 11:43:46;;;;;;;3.40;2.90;;;7.60;99.90;;;;;;4908013;29;20508;-80
2021/03/15 11:46:12;;;;;;;2.87;2.30;;;7.70;99.90;;;;;;4912301;29;20192;-80
2021/03/15 11:48:38;;;;;;;2.27;2.10;;;7.80;99.90;;;;;;4905793;29;20416;-80
2021/03/15 11:51:05;;;;;;;3.30;2.60;;;8.00;99.90;;;;;;4921148;29;20439;-81
2021/03/15 11:53:30;;;;;;;2.07;1.97;;;8.20;99.90;;;;;;4927307;29;20424;-81
2021/03/15 11:56:16;;;;;;;2.67;2.47;;;8.20;99.90;;;;;;4925233;29;20436;-79
2021/03/15 11:59:00;;;;;;;3.43;2.80;;;8.10;99.90;;;;;;4944542;29;20527;-78
2021/03/15 12:01:45;;;;;;;3.57;2.13;;;8.00;99.90;;;;;;4923501;29;20405;-78
2021/03/15 12:04:30;;;;;;;2.23;2.03;;;8.00;99.90;;;;;;4918272;29;20489;-80
2021/03/15 12:07:14;;;;;;;2.13;1.80;;;7.70;99.90;;;;;;4923342;29;20448;-79
2021/03/15 12:09:40;;;;;;;2.20;2.10;;;7.80;99.90;;;;;;4919303;29;20432;-80
2021/03/15 12:12:06;;;;;;;2.17;2.07;;;8.00;99.90;;;;;;4919671;29;20568;-80
2021/03/15 12:14:32;;;;;;;2.10;1.90;;;8.70;99.90;;;;;;4914529;29;20284;-80
2021/03/15 12:16:59;;;;;;;2.57;2.37;;;9.10;99.90;;;;;;4924147;29;20464;-81
2021/03/15 12:19:25;;;;;;;2.37;1.87;;;9.30;99.90;;;;;;4923236;29;20604;-81
2021/03/15 12:21:50;;;;;;;2.37;2.10;;;9.40;99.90;;;;;;4929119;29;20412;-81
2021/03/15 12:24:16;;;;;;;2.23;1.63;;;9.40;99.90;;;;;;4915117;29;20608;-81
2021/03/15 12:26:42;;;;;;;1.83;1.73;;;9.10;99.90;;;;;;4940333;29;20196;-81
2021/03/15 12:29:08;;;;;;;1.70;1.60;;;8.70;99.90;;;;;;4911546;29;20189;-80
2021/03/15 12:31:34;;;;;;;2.20;1.70;;;8.50;99.90;;;;;;4927065;29;20642;-81
2021/03/15 12:34:00;;;;;;;1.80;1.70;;;8.40;99.90;;;;;;4909602;29;20514;-81
2021/03/15 12:36:28;;;;;;;2.63;2.00;;;8.60;99.90;;;;;;4917753;29;20281;-80
2021/03/15 12:38:55;;;;;;;2.17;1.90;;;8.50;99.90;;;;;;4889950;29;20237;-80
2021/03/15 12:41:21;;;;;;;1.70;1.60;;;8.60;99.90;;;;;;4898663;29;20434;-80
2021/03/15 12:43:47;;;;;;;2.80;1.57;;;8.70;99.90;;;;;;4920152;29;20427;-81
2021/03/15 12:46:18;;;;;;;6.03;2.20;;;8.60;99.90;;;;;;4919333;29;20177;-80
2021/03/15 12:48:45;;;;;;;3.80;2.00;;;8.80;99.90;;;;;;4891725;29;20173;-81
2021/03/15 12:51:11;;;;;;;1.60;1.50;;;9.30;99.90;;;;;;4918242;29;20665;-81
2021/03/15 12:53:38;;;;;;;1.37;1.27;;;10.50;99.90;;;;;;4924025;29;20417;-81
2021/03/15 12:56:05;;;;;;;1.60;1.50;;;11.40;99.90;;;;;;4908673;29;20863;-81
2021/03/15 12:58:30;;;;;;;1.70;1.60;;;11.50;99.90;;;;;;4891972;29;20438;-80
2021/03/15 13:00:57;;;;;;;1.43;1.30;;;11.30;99.90;;;;;;4908756;29;20496;-81
2021/03/15 13:03:23;;;;;;;1.60;1.50;;;10.80;99.90;;;;;;4924414;29;20184;-80
2021/03/15 13:05:49;;;;;;;2.10;2.00;;;10.30;99.90;;;;;;4925392;29;20444;-80
2021/03/15 13:08:15;;;;;;;1.70;1.50;;;9.80;99.90;;;;;;4908187;29;20853;-81
2021/03/15 13:10:41;;;;;;;2.90;1.73;;;9.50;99.90;;;;;;4878139;29;20448;-79
2021/03/15 13:13:07;;;;;;;2.00;1.77;;;9.40;99.90;;;;;;4892565;29;20200;-80
2021/03/15 13:15:33;;;;;;;4.73;2.67;;;9.50;99.90;;;;;;4909223;29;20417;-80
2021/03/15 13:17:59;;;;;;;4.13;2.60;;;10.20;99.90;;;;;;4907427;29;20183;-80
2021/03/15 13:20:25;;;;;;;2.20;2.00;;;11.40;99.90;;;;;;4923377;29;20452;-80
2021/03/15 13:22:51;;;;;;;3.80;2.53;;;12.80;99.90;;;;;;4922552;29;20432;-79
2021/03/15 13:25:17;;;;;;;1.70;1.60;;;13.30;99.90;;;;;;4917630;29;20433;-80
2021/03/15 13:27:43;;;;;;;2.10;1.90;;;14.20;99.90;;;;;;4919993;29;20169;-80